Handytankers Glory — C6WH4 — position and weather

sailwx.info

Track history (hours):
 
Tides and Currents Weather Stations Pressure Air Temp Water Temp Dewpoint Dewpoint Depression Visibility Wind Speed Wind Dir Waves Ship Positions

Handytankers Glory

Last reported at 2017-Oct-20 10:01 UTC. Time now 2017-Oct-20 14:03 UTC.
Position S 04°59' E 011°15'.

Length 171 m; draft 7.5 m.

Type: Tanker. MMSI: 309553000.

Date/timePositionNaut miles runAvg speedWind from/ knotsBaromVisibWave heightAir tempDewpointWater temp
2017-Oct-20 10:01S 04°59' E 011°15'0 0.4
2017-Oct-20 10:00S 04°60' E 011°15'1 0.5
2017-Oct-20 08:51S 04°60' E 011°15'1 0.5
2017-Oct-20 06:55S 05°01' E 011°15'0 0.7
2017-Oct-20 06:27S 05°01' E 011°15'1 0.7
2017-Oct-20 05:21S 05°02' E 011°15'0 0.7
2017-Oct-20 04:59S 05°02' E 011°15'0 0.6
2017-Oct-20 04:16S 05°02' E 011°15'0 0.5
2017-Oct-20 04:00S 05°02' E 011°15'0 0.5
2017-Oct-20 03:30S 05°03' E 011°14'0 0.4
2017-Oct-20 03:00S 05°03' E 011°14'0 0.3
2017-Oct-20 02:30S 05°03' E 011°14'0 0.3
2017-Oct-20 02:00S 05°03' E 011°14'0 0.2
2017-Oct-20 01:29S 05°03' E 011°14'0 0.2
2017-Oct-20 00:59S 05°03' E 011°14'0 0.3
2017-Oct-20 00:29S 05°03' E 011°14'0 0.3
2017-Oct-20 00:00S 05°04' E 011°14'0 0.3
2017-Oct-19 23:30S 05°04' E 011°14'0 0.3
2017-Oct-19 23:00S 05°04' E 011°15'0 0.4
2017-Oct-19 22:30S 05°04' E 011°15'0 0.4
2017-Oct-19 22:00S 05°04' E 011°15'0 0.6
2017-Oct-19 21:30S 05°05' E 011°14'0 0.7
2017-Oct-19 21:00S 05°05' E 011°14'0 0.8
2017-Oct-19 20:29S 05°05' E 011°14'0 0.9
2017-Oct-19 20:00S 05°06' E 011°14'0 0.8
2017-Oct-19 19:29S 05°06' E 011°14'0 0.8
2017-Oct-19 18:58S 05°06' E 011°14'0 0.7
2017-Oct-19 18:24S 05°07' E 011°14'0 0.7
2017-Oct-19 18:00S 05°07' E 011°13'0 0.6
2017-Oct-19 17:28S 05°07' E 011°13'0 0.5
2017-Oct-19 16:54S 05°08' E 011°13'0 0.4
2017-Oct-19 16:30S 05°08' E 011°13'0 0.4
2017-Oct-19 15:58S 05°08' E 011°13'0 0.4
2017-Oct-19 15:30S 05°08' E 011°13'2 4.9
2017-Oct-19 15:00S 05°06' E 011°15'510.5
2017-Oct-19 14:30S 05°02' E 011°17'1 1.9
2017-Oct-19 14:00S 05°01' E 011°18'0 0.3
2017-Oct-19 13:29S 05°01' E 011°18'0 0.3
2017-Oct-19 12:59S 05°01' E 011°18'0 0.3
2017-Oct-19 12:30S 05°01' E 011°18'0 0.4
2017-Oct-19 11:51S 05°01' E 011°18'0 0.4
2017-Oct-19 11:28S 05°02' E 011°18'0 0.6
2017-Oct-19 10:59S 05°02' E 011°18'0 0.6
2017-Oct-19 10:22S 05°02' E 011°18'0 0.5
2017-Oct-19 10:00S 05°02' E 011°18'0 0.5
2017-Oct-19 09:29S 05°03' E 011°18'0 0.6
2017-Oct-19 09:00S 05°03' E 011°18'0 0.6
2017-Oct-19 08:29S 05°03' E 011°18'0 0.6
2017-Oct-19 08:00S 05°03' E 011°18'0 0.6
2017-Oct-19 07:29S 05°04' E 011°18'0 0.6
2017-Oct-19 07:00S 05°04' E 011°18'0 0.6
2017-Oct-19 06:30S 05°04' E 011°18'0 0.7
2017-Oct-19 06:00S 05°04' E 011°18'0 0.6
2017-Oct-19 05:30S 05°05' E 011°17'0 0.5
2017-Oct-19 05:00S 05°05' E 011°17'0 0.6
2017-Oct-19 04:30S 05°05' E 011°17'0 0.6
2017-Oct-19 03:59S 05°05' E 011°17'0 0.6
2017-Oct-19 03:30S 05°05' E 011°16'0 0.5
2017-Oct-19 03:00S 05°05' E 011°16'0 0.3
2017-Oct-19 02:29S 05°05' E 011°16'0 0.2
2017-Oct-19 02:00S 05°05' E 011°16'0 0.0
2017-Oct-19 01:30S 05°05' E 011°16'0 0.0
2017-Oct-19 00:56S 05°05' E 011°16'0 0.1
2017-Oct-19 00:29S 05°05' E 011°16'0 0.2
2017-Oct-18 23:54S 05°05' E 011°16'0 0.4
2017-Oct-18 23:30S 05°05' E 011°16'0 0.4
2017-Oct-18 23:00S 05°05' E 011°16'0 0.5
2017-Oct-18 22:30S 05°06' E 011°16'0 0.5
2017-Oct-18 21:59S 05°06' E 011°16'0 0.5
2017-Oct-18 21:30S 05°06' E 011°16'0 0.4
2017-Oct-18 21:00S 05°06' E 011°16'1 1.6
2017-Oct-18 20:30S 05°06' E 011°17'4 8.3
2017-Oct-18 20:00S 05°05' E 011°21'1 2.7
2017-Oct-18 19:30S 05°04' E 011°22'0 0.1
2017-Oct-18 18:58S 05°04' E 011°22'0 0.2
2017-Oct-18 18:30S 05°04' E 011°22'0 0.3
2017-Oct-18 18:00S 05°04' E 011°22'0 0.2
2017-Oct-18 17:30S 05°05' E 011°22'0 0.2
2017-Oct-18 16:59S 05°05' E 011°22'0 0.1
2017-Oct-18 16:28S 05°05' E 011°22'0 0.1
2017-Oct-18 15:59S 05°05' E 011°22'0 0.3
2017-Oct-18 15:29S 05°05' E 011°22'0 0.3
2017-Oct-18 15:00S 05°05' E 011°22'1 0.7
2017-Oct-18 14:00S 05°05' E 011°23'3 6.2
2017-Oct-18 13:30S 05°03' E 011°20'612.4
2017-Oct-18 13:00S 05°03' E 011°14'612.1
2017-Oct-18 12:29S 05°02' E 011°08'  
Track history (hours):
 
Tides and Currents Weather Stations Pressure Air Temp Water Temp Dewpoint Dewpoint Depression Visibility Wind Speed Wind Dir Waves Ship Positions

Handytankers Glory

Last reported at 2017-Oct-20 10:01 UTC. Time now 2017-Oct-20 14:03 UTC.
Position S 04°59' E 011°15'.

Length 171 m; draft 7.5 m.

Type: Tanker. MMSI: 309553000.

Date/timePositionNaut miles runAvg speedWind from/ knotsBaromVisibWave heightAir tempDewpointWater temp
2017-Oct-20 10:01S 04°59' E 011°15'0 0.4
2017-Oct-20 10:00S 04°60' E 011°15'1 0.5
2017-Oct-20 08:51S 04°60' E 011°15'1 0.5
2017-Oct-20 06:55S 05°01' E 011°15'0 0.7
2017-Oct-20 06:27S 05°01' E 011°15'1 0.7
2017-Oct-20 05:21S 05°02' E 011°15'0 0.7
2017-Oct-20 04:59S 05°02' E 011°15'0 0.6
2017-Oct-20 04:16S 05°02' E 011°15'0 0.5
2017-Oct-20 04:00S 05°02' E 011°15'0 0.5
2017-Oct-20 03:30S 05°03' E 011°14'0 0.4
2017-Oct-20 03:00S 05°03' E 011°14'0 0.3
2017-Oct-20 02:30S 05°03' E 011°14'0 0.3
2017-Oct-20 02:00S 05°03' E 011°14'0 0.2
2017-Oct-20 01:29S 05°03' E 011°14'0 0.2
2017-Oct-20 00:59S 05°03' E 011°14'0 0.3
2017-Oct-20 00:29S 05°03' E 011°14'0 0.3
2017-Oct-20 00:00S 05°04' E 011°14'0 0.3
2017-Oct-19 23:30S 05°04' E 011°14'0 0.3
2017-Oct-19 23:00S 05°04' E 011°15'0 0.4
2017-Oct-19 22:30S 05°04' E 011°15'0 0.4
2017-Oct-19 22:00S 05°04' E 011°15'0 0.6
2017-Oct-19 21:30S 05°05' E 011°14'0 0.7
2017-Oct-19 21:00S 05°05' E 011°14'0 0.8
2017-Oct-19 20:29S 05°05' E 011°14'0 0.9
2017-Oct-19 20:00S 05°06' E 011°14'0 0.8
2017-Oct-19 19:29S 05°06' E 011°14'0 0.8
2017-Oct-19 18:58S 05°06' E 011°14'0 0.7
2017-Oct-19 18:24S 05°07' E 011°14'0 0.7
2017-Oct-19 18:00S 05°07' E 011°13'0 0.6
2017-Oct-19 17:28S 05°07' E 011°13'0 0.5
2017-Oct-19 16:54S 05°08' E 011°13'0 0.4
2017-Oct-19 16:30S 05°08' E 011°13'0 0.4
2017-Oct-19 15:58S 05°08' E 011°13'0 0.4
2017-Oct-19 15:30S 05°08' E 011°13'2 4.9
2017-Oct-19 15:00S 05°06' E 011°15'510.5
2017-Oct-19 14:30S 05°02' E 011°17'1 1.9
2017-Oct-19 14:00S 05°01' E 011°18'0 0.3
2017-Oct-19 13:29S 05°01' E 011°18'0 0.3
2017-Oct-19 12:59S 05°01' E 011°18'0 0.3
2017-Oct-19 12:30S 05°01' E 011°18'0 0.4
2017-Oct-19 11:51S 05°01' E 011°18'0 0.4
2017-Oct-19 11:28S 05°02' E 011°18'0 0.6
2017-Oct-19 10:59S 05°02' E 011°18'0 0.6
2017-Oct-19 10:22S 05°02' E 011°18'0 0.5
2017-Oct-19 10:00S 05°02' E 011°18'0 0.5
2017-Oct-19 09:29S 05°03' E 011°18'0 0.6
2017-Oct-19 09:00S 05°03' E 011°18'0 0.6
2017-Oct-19 08:29S 05°03' E 011°18'0 0.6
2017-Oct-19 08:00S 05°03' E 011°18'0 0.6
2017-Oct-19 07:29S 05°04' E 011°18'0 0.6
2017-Oct-19 07:00S 05°04' E 011°18'0 0.6
2017-Oct-19 06:30S 05°04' E 011°18'0 0.7
2017-Oct-19 06:00S 05°04' E 011°18'0 0.6
2017-Oct-19 05:30S 05°05' E 011°17'0 0.5
2017-Oct-19 05:00S 05°05' E 011°17'0 0.6
2017-Oct-19 04:30S 05°05' E 011°17'0 0.6
2017-Oct-19 03:59S 05°05' E 011°17'0 0.6
2017-Oct-19 03:30S 05°05' E 011°16'0 0.5
2017-Oct-19 03:00S 05°05' E 011°16'0 0.3
2017-Oct-19 02:29S 05°05' E 011°16'0 0.2
2017-Oct-19 02:00S 05°05' E 011°16'0 0.0
2017-Oct-19 01:30S 05°05' E 011°16'0 0.0
2017-Oct-19 00:56S 05°05' E 011°16'0 0.1
2017-Oct-19 00:29S 05°05' E 011°16'0 0.2
2017-Oct-18 23:54S 05°05' E 011°16'0 0.4
2017-Oct-18 23:30S 05°05' E 011°16'0 0.4
2017-Oct-18 23:00S 05°05' E 011°16'0 0.5
2017-Oct-18 22:30S 05°06' E 011°16'0 0.5
2017-Oct-18 21:59S 05°06' E 011°16'0 0.5
2017-Oct-18 21:30S 05°06' E 011°16'0 0.4
2017-Oct-18 21:00S 05°06' E 011°16'1 1.6
2017-Oct-18 20:30S 05°06' E 011°17'4 8.3
2017-Oct-18 20:00S 05°05' E 011°21'1 2.7
2017-Oct-18 19:30S 05°04' E 011°22'0 0.1
2017-Oct-18 18:58S 05°04' E 011°22'0 0.2
2017-Oct-18 18:30S 05°04' E 011°22'0 0.3
2017-Oct-18 18:00S 05°04' E 011°22'0 0.2
2017-Oct-18 17:30S 05°05' E 011°22'0 0.2
2017-Oct-18 16:59S 05°05' E 011°22'0 0.1
2017-Oct-18 16:28S 05°05' E 011°22'0 0.1
2017-Oct-18 15:59S 05°05' E 011°22'0 0.3
2017-Oct-18 15:29S 05°05' E 011°22'0 0.3
2017-Oct-18 15:00S 05°05' E 011°22'1 0.7
2017-Oct-18 14:00S 05°05' E 011°23'3 6.2
2017-Oct-18 13:30S 05°03' E 011°20'612.4
2017-Oct-18 13:00S 05°03' E 011°14'612.1
2017-Oct-18 12:29S 05°02' E 011°08'  

Dump ship's entire track history